Time;durP1;ratioP1;P1;durP2;ratioP2;P2;SDS_P1;SDS_P2;PMS_P1;PMS_P2;Temp;Humidity;BMP_temperature;BMP_pressure;BME280_temperature;BME280_humidity;BME280_pressure;Samples;Min_cycle;Max_cycle;Signal;HPM_P1;HPM_P2
2022/06/20 00:01:09;;;;;;;0.00;0.00;;;14.60;99.90;;;;;;4986335;28;20435;-81
2022/06/20 00:03:39;;;;;;;0.00;0.00;;;14.50;99.90;;;;;;4985802;28;20454;-82
2022/06/20 00:06:10;;;;;;;0.00;0.00;;;14.50;99.90;;;;;;4986817;28;20467;-82
2022/06/20 00:08:38;;;;;;;0.00;0.00;;;14.40;99.90;;;;;;4985847;28;20973;-81
2022/06/20 00:11:06;;;;;;;0.00;0.00;;;14.50;99.90;;;;;;4985154;28;20483;-82
2022/06/20 00:13:36;;;;;;;0.00;0.00;;;14.50;99.90;;;;;;4988049;28;20758;-83
2022/06/20 00:16:04;;;;;;;0.00;0.00;;;14.50;99.90;;;;;;4992515;28;20474;-83
2022/06/20 00:18:32;;;;;;;0.00;0.00;;;14.50;99.90;;;;;;4986316;28;20482;-83
2022/06/20 00:21:00;;;;;;;0.00;0.00;;;14.40;99.90;;;;;;4985838;28;20449;-83
2022/06/20 00:23:28;;;;;;;0.00;0.00;;;14.30;99.90;;;;;;4988342;28;20479;-83
2022/06/20 00:25:56;;;;;;;0.00;0.00;;;14.30;99.90;;;;;;5003054;28;20470;-82
2022/06/20 00:28:24;;;;;;;0.00;0.00;;;14.30;99.90;;;;;;4997601;28;20522;-83
2022/06/20 00:30:53;;;;;;;0.00;0.00;;;14.30;99.90;;;;;;5002736;28;20443;-81
2022/06/20 00:33:21;;;;;;;0.00;0.00;;;14.20;99.90;;;;;;4993177;28;20512;-82
2022/06/20 00:35:49;;;;;;;0.00;0.00;;;14.20;99.90;;;;;;4986470;28;20521;-81
2022/06/20 00:38:20;;;;;;;0.00;0.00;;;14.20;99.90;;;;;;4982868;28;20459;-81
2022/06/20 00:40:50;;;;;;;0.00;0.00;;;14.20;99.90;;;;;;4982339;28;20431;-82
2022/06/20 00:43:22;;;;;;;0.00;0.00;;;14.30;99.90;;;;;;4983220;28;20537;-82
2022/06/20 00:45:56;;;;;;;0.00;0.00;;;14.30;99.90;;;;;;4988901;28;20473;-85
2022/06/20 00:48:30;;;;;;;0.00;0.00;;;14.40;99.90;;;;;;4990478;28;20447;-86
2022/06/20 00:51:04;;;;;;;0.00;0.00;;;14.40;99.90;;;;;;4987365;28;20474;-84
2022/06/20 00:53:40;;;;;;;0.00;0.00;;;14.50;99.90;;;;;;4987025;28;20451;-86
2022/06/20 00:56:14;;;;;;;0.00;0.00;;;14.50;99.90;;;;;;4986691;28;20477;-88
2022/06/20 00:58:46;;;;;;;0.00;0.00;;;14.50;99.90;;;;;;4985021;28;20490;-88
2022/06/20 01:01:18;;;;;;;0.00;0.00;;;14.50;99.90;;;;;;4986490;28;20813;-78
2022/06/20 01:03:49;;;;;;;0.00;0.00;;;14.50;99.90;;;;;;4981869;28;20473;-81
2022/06/20 01:06:23;;;;;;;0.00;0.00;;;14.50;99.90;;;;;;4981136;28;20474;-79
2022/06/20 01:08:57;;;;;;;0.00;0.00;;;14.50;99.90;;;;;;4980849;28;20902;-79
2022/06/20 01:11:27;;;;;;;0.00;0.00;;;14.60;99.90;;;;;;4980883;28;20475;-79
2022/06/20 01:13:55;;;;;;;0.00;0.00;;;14.60;99.90;;;;;;4980689;28;20441;-80
2022/06/20 01:16:28;;;;;;;0.00;0.00;;;14.60;99.90;;;;;;4980718;28;20751;-80
2022/06/20 01:18:57;;;;;;;0.00;0.00;;;14.60;99.90;;;;;;4980788;28;20431;-78
2022/06/20 01:21:31;;;;;;;0.00;0.00;;;14.60;99.90;;;;;;4981193;28;20451;-78
2022/06/20 01:24:11;;;;;;;0.00;0.00;;;14.60;99.90;;;;;;4980858;28;20443;-78
2022/06/20 01:26:48;;;;;;;0.00;0.00;;;14.60;99.90;;;;;;4979844;28;20703;-78
2022/06/20 01:29:19;;;;;;;0.00;0.00;;;14.60;99.90;;;;;;4979910;28;20438;-78
2022/06/20 01:31:52;;;;;;;0.00;0.00;;;14.60;99.90;;;;;;4980117;28;20478;-78
2022/06/20 01:34:22;;;;;;;0.00;0.00;;;14.60;99.90;;;;;;4980224;28;20993;-78
2022/06/20 01:39:55;;;;;;;0.00;0.00;;;14.40;99.90;;;;;;4920516;29;20908;-78
2022/06/20 01:42:23;;;;;;;0.00;0.00;;;14.40;99.90;;;;;;4967153;28;20847;-77
2022/06/20 01:44:57;;;;;;;0.00;0.00;;;14.30;99.90;;;;;;4980631;28;20827;-78
2022/06/20 01:47:24;;;;;;;0.00;0.00;;;14.30;99.90;;;;;;4980710;28;20998;-78
2022/06/20 01:49:58;;;;;;;0.00;0.00;;;14.30;99.90;;;;;;4981040;28;20545;-78
2022/06/20 01:52:30;;;;;;;0.00;0.00;;;14.30;99.90;;;;;;4980226;28;20478;-78
2022/06/20 01:55:03;;;;;;;0.00;0.00;;;14.20;99.90;;;;;;4983218;28;20520;-78
2022/06/20 01:57:34;;;;;;;0.00;0.00;;;14.20;99.90;;;;;;4984810;28;20477;-78
2022/06/20 02:00:08;;;;;;;0.00;0.00;;;14.20;99.90;;;;;;4984701;28;20701;-78
2022/06/20 02:02:41;;;;;;;0.00;0.00;;;14.20;99.90;;;;;;4986830;28;20447;-78
2022/06/20 02:05:13;;;;;;;0.00;0.00;;;14.10;99.90;;;;;;4987690;28;20520;-79
2022/06/20 02:07:42;;;;;;;0.00;0.00;;;14.20;99.90;;;;;;4988383;28;20475;-79
2022/06/20 02:10:17;;;;;;;0.00;0.00;;;14.10;99.90;;;;;;4987558;28;20443;-79
2022/06/20 02:12:47;;;;;;;0.00;0.00;;;14.20;99.90;;;;;;4986928;28;21135;-79
2022/06/20 02:15:18;;;;;;;0.00;0.00;;;14.20;99.90;;;;;;4987760;28;20966;-79
2022/06/20 02:23:04;;;;;;;0.00;0.00;;;14.00;99.90;;;;;;5260012;23;20499;-77
2022/06/20 02:25:38;;;;;;;0.00;0.00;;;13.90;99.90;;;;;;5003397;28;21187;-78
2022/06/20 02:28:10;;;;;;;0.00;0.00;;;13.80;99.90;;;;;;5005225;28;20430;-76
2022/06/20 02:30:40;;;;;;;0.00;0.00;;;13.80;99.90;;;;;;5003202;28;20442;-76
2022/06/20 02:33:12;;;;;;;0.00;0.00;;;13.70;99.90;;;;;;5001860;28;20720;-76
2022/06/20 02:35:41;;;;;;;0.00;0.00;;;13.60;99.90;;;;;;5002479;28;20959;-76
2022/06/20 02:38:10;;;;;;;0.00;0.00;;;13.50;99.90;;;;;;5002908;28;20525;-77
2022/06/20 02:40:41;;;;;;;0.00;0.00;;;13.40;99.90;;;;;;5007161;28;20832;-78
2022/06/20 02:43:15;;;;;;;0.00;0.00;;;13.30;99.90;;;;;;5006202;28;20845;-77
2022/06/20 02:45:45;;;;;;;0.00;0.00;;;13.30;99.90;;;;;;5005176;28;20460;-77
2022/06/20 02:48:15;;;;;;;0.00;0.00;;;13.20;99.90;;;;;;5007683;28;20879;-76
2022/06/20 02:50:48;;;;;;;0.00;0.00;;;13.20;99.90;;;;;;5010355;28;20933;-77
2022/06/20 02:53:21;;;;;;;0.00;0.00;;;13.20;99.90;;;;;;5007847;28;20498;-77
2022/06/20 02:55:51;;;;;;;0.00;0.00;;;13.20;99.90;;;;;;5007637;28;20458;-78
2022/06/20 02:58:21;;;;;;;0.00;0.00;;;13.20;99.90;;;;;;5007279;28;20921;-78
2022/06/20 03:00:56;;;;;;;0.00;0.00;;;13.20;99.90;;;;;;5006798;28;20449;-78
2022/06/20 03:03:30;;;;;;;0.00;0.00;;;13.10;99.90;;;;;;5007775;28;20525;-78
2022/06/20 03:05:59;;;;;;;0.00;0.00;;;13.10;99.90;;;;;;5006615;28;20484;-78
2022/06/20 03:08:27;;;;;;;0.00;0.00;;;13.10;99.90;;;;;;5011027;28;20438;-77
2022/06/20 03:10:57;;;;;;;0.00;0.00;;;13.10;99.90;;;;;;5021551;28;20510;-75
2022/06/20 03:13:25;;;;;;;0.00;0.00;;;13.10;99.90;;;;;;5013990;28;20558;-76
2022/06/20 03:15:54;;;;;;;0.00;0.00;;;13.00;99.90;;;;;;5008524;28;20458;-76
2022/06/20 03:18:24;;;;;;;0.00;0.00;;;12.90;99.90;;;;;;5005104;28;20454;-76
2022/06/20 03:20:52;;;;;;;0.00;0.00;;;12.90;99.90;;;;;;5003908;28;20860;-76
2022/06/20 03:23:24;;;;;;;0.00;0.00;;;13.00;99.90;;;;;;5003691;28;20718;-77
2022/06/20 03:25:54;;;;;;;0.00;0.00;;;13.00;99.90;;;;;;5003072;28;20747;-77
2022/06/20 03:28:24;;;;;;;0.00;0.00;;;13.00;99.90;;;;;;5003672;28;20518;-77
2022/06/20 03:31:11;;;;;;;0.00;0.00;;;13.10;99.90;;;;;;5001483;28;20791;-77
2022/06/20 03:33:40;;;;;;;0.00;0.00;;;13.20;99.90;;;;;;5003418;28;20478;-76
2022/06/20 03:36:13;;;;;;;0.00;0.00;;;13.30;99.90;;;;;;5001056;28;20997;-76
2022/06/20 03:38:43;;;;;;;0.00;0.00;;;13.40;99.90;;;;;;5001490;28;20464;-76
2022/06/20 03:41:16;;;;;;;0.00;0.00;;;13.40;99.90;;;;;;5001362;28;20529;-75
2022/06/20 03:43:51;;;;;;;0.00;0.00;;;13.50;99.90;;;;;;5002030;28;20446;-78
2022/06/20 03:46:25;;;;;;;0.00;0.00;;;13.50;99.90;;;;;;5002457;28;20709;-76
2022/06/20 03:49:01;;;;;;;0.00;0.00;;;13.40;99.90;;;;;;5000549;28;20643;-76
2022/06/20 03:51:36;;;;;;;0.00;0.00;;;13.40;99.90;;;;;;5002345;28;20473;-77
2022/06/20 03:54:09;;;;;;;0.00;0.00;;;13.40;99.90;;;;;;5001706;28;20481;-72
2022/06/20 03:56:42;;;;;;;0.00;0.00;;;13.40;99.90;;;;;;4999280;28;20565;-72
2022/06/20 03:59:15;;;;;;;0.00;0.00;;;13.40;99.90;;;;;;4999307;28;20807;-71
2022/06/20 04:01:49;;;;;;;0.00;0.00;;;13.50;99.90;;;;;;4998789;28;20609;-72
2022/06/20 04:04:23;;;;;;;0.00;0.00;;;13.60;99.90;;;;;;4999647;28;20829;-72
2022/06/20 04:06:56;;;;;;;0.00;0.00;;;13.70;99.90;;;;;;4999022;28;20462;-74
2022/06/20 04:12:22;;;;;;;0.00;0.00;;;13.70;99.90;;;;;;4998496;28;20949;-74
2022/06/20 04:14:56;;;;;;;0.00;0.00;;;13.80;99.90;;;;;;4998668;28;20887;-72
2022/06/20 04:20:26;;;;;;;0.00;0.00;;;13.80;99.90;;;;;;4993252;28;20442;-72
2022/06/20 04:22:55;;;;;;;0.00;0.00;;;13.90;99.90;;;;;;4990402;28;20445;-71
2022/06/20 04:25:34;;;;;;;0.00;0.00;;;14.00;99.90;;;;;;4996211;28;20464;-77
2022/06/20 04:28:16;;;;;;;0.00;0.00;;;14.00;99.90;;;;;;5008068;28;20529;-71
2022/06/20 04:30:48;;;;;;;0.00;0.00;;;14.00;99.90;;;;;;5008035;28;20460;-72
2022/06/20 04:33:24;;;;;;;0.00;0.00;;;14.10;99.90;;;;;;4978602;28;20478;-72
2022/06/20 04:36:06;;;;;;;0.00;0.00;;;14.20;99.90;;;;;;4979934;28;20536;-73
2022/06/20 04:38:40;;;;;;;0.00;0.00;;;14.30;99.90;;;;;;4978750;28;20859;-73
2022/06/20 04:41:14;;;;;;;0.00;0.00;;;14.30;99.90;;;;;;4992737;28;20550;-72
2022/06/20 04:43:51;;;;;;;0.00;0.00;;;14.40;99.90;;;;;;4998211;28;20441;-72
2022/06/20 04:46:22;;;;;;;0.00;0.00;;;14.50;99.90;;;;;;4997792;28;20462;-72
2022/06/20 04:48:53;;;;;;;0.00;0.00;;;14.50;99.90;;;;;;4998726;28;21127;-72
2022/06/20 04:51:27;;;;;;;0.00;0.00;;;14.50;99.90;;;;;;4998899;28;20438;-72
2022/06/20 04:53:56;;;;;;;0.00;0.00;;;14.50;99.90;;;;;;4988831;28;20569;-71
2022/06/20 04:56:26;;;;;;;0.00;0.00;;;14.50;99.90;;;;;;4979252;28;20473;-72
2022/06/20 04:58:58;;;;;;;0.00;0.00;;;14.50;99.90;;;;;;4995150;28;20545;-72
2022/06/20 05:01:30;;;;;;;0.00;0.00;;;14.40;99.90;;;;;;4991876;28;20440;-72
2022/06/20 05:04:07;;;;;;;0.00;0.00;;;14.40;99.90;;;;;;4990668;28;20492;-72
2022/06/20 05:06:37;;;;;;;0.00;0.00;;;14.40;99.90;;;;;;4984478;28;20557;-72
2022/06/20 05:09:11;;;;;;;0.00;0.00;;;14.40;99.90;;;;;;4992578;28;20443;-72
2022/06/20 05:11:43;;;;;;;0.00;0.00;;;14.50;99.90;;;;;;4990307;28;21080;-71
2022/06/20 05:14:24;;;;;;;0.00;0.00;;;14.50;99.90;;;;;;4990613;28;20539;-71
2022/06/20 05:17:00;;;;;;;0.00;0.00;;;14.50;99.90;;;;;;4989098;28;20760;-71
2022/06/20 05:19:33;;;;;;;0.00;0.00;;;14.60;99.90;;;;;;4994027;28;20545;-71
2022/06/20 05:22:06;;;;;;;0.00;0.00;;;14.70;99.90;;;;;;4993001;28;20519;-78
2022/06/20 05:24:37;;;;;;;0.00;0.00;;;14.70;99.90;;;;;;4989628;28;20467;-78
2022/06/20 05:27:10;;;;;;;0.00;0.00;;;14.80;99.90;;;;;;4980144;28;20462;-77
2022/06/20 05:29:41;;;;;;;0.00;0.00;;;15.00;99.90;;;;;;4994630;28;20451;-77
2022/06/20 05:32:14;;;;;;;0.00;0.00;;;15.20;99.90;;;;;;4985174;28;20514;-77
2022/06/20 05:34:51;;;;;;;0.00;0.00;;;15.50;99.90;;;;;;4985082;28;20492;-78
2022/06/20 05:37:33;;;;;;;0.00;0.00;;;15.70;99.90;;;;;;4985750;28;20486;-76
2022/06/20 05:40:09;;;;;;;0.00;0.00;;;15.80;99.90;;;;;;4984326;28;20482;-75
2022/06/20 05:42:38;;;;;;;0.00;0.00;;;15.80;99.90;;;;;;4982580;28;20455;-74
2022/06/20 05:45:15;;;;;;;0.00;0.00;;;15.90;99.90;;;;;;4983414;28;20822;-70
2022/06/20 05:47:46;;;;;;;0.00;0.00;;;16.00;99.90;;;;;;4983638;28;20475;-70
2022/06/20 05:50:32;;;;;;;0.00;0.00;;;16.20;99.90;;;;;;4982525;28;20446;-69
2022/06/20 05:53:02;;;;;;;0.00;0.00;;;16.30;99.90;;;;;;4982206;28;20430;-69
2022/06/20 05:55:38;;;;;;;0.00;0.00;;;16.40;99.90;;;;;;4982214;28;20474;-69
2022/06/20 05:58:09;;;;;;;0.00;0.00;;;16.50;99.90;;;;;;4982280;28;20518;-69
2022/06/20 06:00:38;;;;;;;0.00;0.00;;;16.60;99.90;;;;;;4982034;28;20457;-72
2022/06/20 06:03:12;;;;;;;0.00;0.00;;;16.70;99.90;;;;;;4990084;28;20451;-71
2022/06/20 06:05:44;;;;;;;0.00;0.00;;;16.90;99.90;;;;;;4981834;28;20787;-71
2022/06/20 06:08:20;;;;;;;0.00;0.00;;;17.00;99.90;;;;;;4997945;28;20795;-72
2022/06/20 06:11:16;;;;;;;0.00;0.00;;;17.10;99.90;;;;;;4993139;28;20462;-70
2022/06/20 06:13:49;;;;;;;0.00;0.00;;;17.20;99.90;;;;;;4998747;28;20798;-71
2022/06/20 06:19:16;;;;;;;0.00;0.00;;;17.20;99.90;;;;;;5000021;28;20442;-69
2022/06/20 06:21:48;;;;;;;0.00;0.00;;;17.10;99.90;;;;;;4991334;28;20451;-70
2022/06/20 06:24:20;;;;;;;0.00;0.00;;;17.00;99.90;;;;;;4981049;28;20448;-69
2022/06/20 06:26:49;;;;;;;0.00;0.00;;;17.00;99.90;;;;;;4981532;28;20463;-70
2022/06/20 06:29:23;;;;;;;0.00;0.00;;;17.00;99.90;;;;;;5002327;28;20454;-74
2022/06/20 06:31:57;;;;;;;0.00;0.00;;;17.10;99.90;;;;;;4999602;28;20439;-73
2022/06/20 06:34:39;;;;;;;0.00;0.00;;;17.20;99.90;;;;;;4997633;28;20484;-72
2022/06/20 06:37:14;;;;;;;0.00;0.00;;;17.40;99.90;;;;;;4997316;28;20459;-72
2022/06/20 06:39:48;;;;;;;0.00;0.00;;;17.40;99.90;;;;;;5004460;28;20447;-76
2022/06/20 06:42:21;;;;;;;0.00;0.00;;;17.50;99.90;;;;;;5002929;28;20455;-75
2022/06/20 06:44:51;;;;;;;0.00;0.00;;;17.50;99.90;;;;;;5000865;28;20780;-75
2022/06/20 06:47:22;;;;;;;0.00;0.00;;;17.40;99.90;;;;;;5008617;28;20534;-68
2022/06/20 06:49:55;;;;;;;0.00;0.00;;;17.40;99.90;;;;;;4988554;28;20448;-70
2022/06/20 06:52:28;;;;;;;0.00;0.00;;;17.30;99.90;;;;;;4985844;28;20519;-70
2022/06/20 06:55:17;;;;;;;0.00;0.00;;;17.20;99.90;;;;;;5000082;28;20900;-70
2022/06/20 06:57:49;;;;;;;0.00;0.00;;;17.10;99.90;;;;;;5000256;28;20479;-71
2022/06/20 07:00:22;;;;;;;0.00;0.00;;;17.00;99.90;;;;;;4994376;28;21117;-70
2022/06/20 07:02:54;;;;;;;0.00;0.00;;;17.00;99.90;;;;;;4980882;28;20444;-71
2022/06/20 07:05:29;;;;;;;0.00;0.00;;;17.00;99.90;;;;;;4980904;28;20471;-70
2022/06/20 07:08:03;;;;;;;0.00;0.00;;;17.00;99.90;;;;;;4980898;28;20451;-69
2022/06/20 07:10:37;;;;;;;0.00;0.00;;;16.90;99.90;;;;;;4980922;28;20443;-70
2022/06/20 07:13:13;;;;;;;0.00;0.00;;;16.90;99.90;;;;;;4980435;28;21102;-70
2022/06/20 07:15:43;;;;;;;0.00;0.00;;;16.90;99.90;;;;;;4980288;28;20478;-71
2022/06/20 07:18:25;;;;;;;0.00;0.00;;;16.80;99.90;;;;;;4980874;28;20457;-70
2022/06/20 07:20:53;;;;;;;0.00;0.00;;;16.80;99.90;;;;;;4991399;28;20504;-70
2022/06/20 07:23:23;;;;;;;0.00;0.00;;;16.80;99.90;;;;;;4993294;28;20509;-70
2022/06/20 07:25:52;;;;;;;0.00;0.00;;;16.80;99.90;;;;;;4998899;28;20984;-69
2022/06/20 07:28:34;;;;;;;0.00;0.00;;;16.90;99.90;;;;;;4991567;28;20573;-69
2022/06/20 07:31:18;;;;;;;0.00;0.00;;;17.00;99.90;;;;;;4979823;28;20435;-69
2022/06/20 07:33:49;;;;;;;0.00;0.00;;;17.00;99.90;;;;;;4981193;28;20456;-69
2022/06/20 07:36:23;;;;;;;0.00;0.00;;;17.10;99.90;;;;;;4979471;28;20479;-69
2022/06/20 07:38:57;;;;;;;0.00;0.00;;;17.10;99.90;;;;;;4991449;28;20446;-70
2022/06/20 07:41:35;;;;;;;0.00;0.00;;;17.10;99.90;;;;;;4983909;28;20546;-70
2022/06/20 07:44:08;;;;;;;0.00;0.00;;;17.10;99.90;;;;;;4996861;28;20532;-71
2022/06/20 07:46:42;;;;;;;0.00;0.00;;;17.10;99.90;;;;;;5000212;28;20534;-71
2022/06/20 07:49:18;;;;;;;0.00;0.00;;;17.20;99.90;;;;;;4999521;28;20554;-71
2022/06/20 07:51:51;;;;;;;0.00;0.00;;;17.30;99.90;;;;;;4998650;28;20457;-71
2022/06/20 07:54:24;;;;;;;0.00;0.00;;;17.40;99.90;;;;;;4999386;28;20447;-73
2022/06/20 07:56:58;;;;;;;0.00;0.00;;;17.60;99.90;;;;;;4999293;28;21238;-73
2022/06/20 07:59:31;;;;;;;0.00;0.00;;;17.80;99.90;;;;;;5000042;28;20450;-72
2022/06/20 08:02:06;;;;;;;0.00;0.00;;;18.00;99.90;;;;;;4994121;28;20550;-73
2022/06/20 08:04:38;;;;;;;0.00;0.00;;;18.10;99.90;;;;;;4979924;28;21045;-72
2022/06/20 08:07:11;;;;;;;0.00;0.00;;;18.20;99.90;;;;;;4994508;28;20471;-72
2022/06/20 08:09:45;;;;;;;0.00;0.00;;;18.30;99.90;;;;;;4983455;28;20441;-72
2022/06/20 08:12:38;;;;;;;0.00;0.00;;;18.20;99.90;;;;;;4991878;28;20458;-72
2022/06/20 08:15:12;;;;;;;0.00;0.00;;;18.30;99.90;;;;;;4995644;28;20487;-72
2022/06/20 08:17:40;;;;;;;0.00;0.00;;;18.30;99.90;;;;;;4991097;28;20472;-71
2022/06/20 08:20:10;;;;;;;0.00;0.00;;;18.20;99.90;;;;;;4998977;28;20451;-71
2022/06/20 08:22:47;;;;;;;0.00;0.00;;;18.10;99.90;;;;;;4990755;28;20688;-72
2022/06/20 08:25:22;;;;;;;0.00;0.00;;;18.00;99.90;;;;;;4997634;28;20482;-71
2022/06/20 08:27:55;;;;;;;0.00;0.00;;;17.90;99.90;;;;;;4993823;28;20569;-71
2022/06/20 08:30:32;;;;;;;0.00;0.00;;;17.60;99.90;;;;;;4992820;28;20448;-71
2022/06/20 08:33:06;;;;;;;0.00;0.00;;;17.20;99.90;;;;;;4987791;28;20458;-71
2022/06/20 08:35:39;;;;;;;0.00;0.00;;;16.90;99.90;;;;;;4980498;28;20493;-71
2022/06/20 08:38:14;;;;;;;0.00;0.00;;;16.80;99.90;;;;;;4990568;28;20451;-71
2022/06/20 08:41:16;;;;;;;0.00;0.00;;;16.90;99.90;;;;;;4998336;28;20441;-71
2022/06/20 08:44:04;;;;;;;0.00;0.00;;;17.00;99.90;;;;;;4985619;28;20957;-69
2022/06/20 08:46:57;;;;;;;0.00;0.00;;;17.10;99.90;;;;;;4979527;28;20459;-70
2022/06/20 08:49:54;;;;;;;0.00;0.00;;;17.20;99.90;;;;;;4984900;28;20440;-70
2022/06/20 08:52:45;;;;;;;0.00;0.00;;;17.30;99.90;;;;;;4985567;28;20452;-70
2022/06/20 08:55:39;;;;;;;0.00;0.00;;;17.20;99.90;;;;;;4978937;28;20457;-70
2022/06/20 08:58:18;;;;;;;0.00;0.00;;;17.30;99.90;;;;;;4982358;28;21137;-71
2022/06/20 09:00:55;;;;;;;0.00;0.00;;;17.40;99.90;;;;;;4994554;28;20925;-70
2022/06/20 09:04:00;;;;;;;0.00;0.00;;;17.50;99.90;;;;;;4993993;28;20462;-71
2022/06/20 09:06:44;;;;;;;0.00;0.00;;;17.60;99.90;;;;;;4890847;29;20874;-72
2022/06/20 09:09:26;;;;;;;0.00;0.00;;;17.80;99.90;;;;;;4975142;28;20834;-72
2022/06/20 09:12:06;;;;;;;0.00;0.00;;;18.00;99.90;;;;;;4997476;28;20526;-73
2022/06/20 09:14:57;;;;;;;0.00;0.00;;;18.00;99.90;;;;;;4987748;28;20815;-72
2022/06/20 09:17:32;;;;;;;0.00;0.00;;;18.00;99.90;;;;;;4977995;28;20492;-72
2022/06/20 09:20:15;;;;;;;0.00;0.00;;;18.00;99.90;;;;;;4978357;28;20514;-72
2022/06/20 09:22:57;;;;;;;0.00;0.00;;;18.00;99.90;;;;;;4985804;28;20455;-70
2022/06/20 09:25:37;;;;;;;0.00;0.00;;;18.20;99.90;;;;;;4989633;28;20971;-72
2022/06/20 09:28:26;;;;;;;0.00;0.00;;;18.30;99.90;;;;;;4989324;28;20557;-70
2022/06/20 09:31:01;;;;;;;0.00;0.00;;;18.30;99.90;;;;;;4983248;28;21022;-71
2022/06/20 09:34:02;;;;;;;0.00;0.00;;;18.20;99.90;;;;;;4989795;28;20455;-70
2022/06/20 09:37:09;;;;;;;0.00;0.00;;;18.20;99.90;;;;;;4978150;28;20500;-70
2022/06/20 09:39:47;;;;;;;0.00;0.00;;;18.10;99.90;;;;;;4984191;28;20466;-70
2022/06/20 09:42:27;;;;;;;0.00;0.00;;;18.40;99.90;;;;;;4987504;28;20483;-70
2022/06/20 09:45:05;;;;;;;0.00;0.00;;;18.70;99.90;;;;;;4981692;28;20453;-70
2022/06/20 09:47:44;;;;;;;0.00;0.00;;;18.90;99.90;;;;;;4980287;28;20532;-75
2022/06/20 09:50:24;;;;;;;0.00;0.00;;;19.00;99.90;;;;;;4985002;28;20767;-69
2022/06/20 09:53:06;;;;;;;0.00;0.00;;;19.20;99.90;;;;;;4979828;28;20454;-69
2022/06/20 09:55:42;;;;;;;0.00;0.00;;;19.20;99.90;;;;;;4988500;28;20449;-71
2022/06/20 09:58:17;;;;;;;0.00;0.00;;;19.40;99.90;;;;;;4977720;28;20465;-69
2022/06/20 10:00:52;;;;;;;0.00;0.00;;;19.60;99.90;;;;;;4990037;28;20908;-69
2022/06/20 10:03:32;;;;;;;0.00;0.00;;;19.70;99.90;;;;;;4997065;28;20438;-70
2022/06/20 10:06:07;;;;;;;0.00;0.00;;;19.70;99.90;;;;;;4990418;28;20549;-69
2022/06/20 10:08:44;;;;;;;0.00;0.00;;;19.30;99.90;;;;;;4978106;28;20441;-71
2022/06/20 10:11:21;;;;;;;0.00;0.00;;;19.10;99.90;;;;;;4977270;28;20494;-69
2022/06/20 10:13:55;;;;;;;0.00;0.00;;;19.00;99.90;;;;;;4996018;28;20535;-71
2022/06/20 10:16:30;;;;;;;0.00;0.00;;;19.00;99.90;;;;;;5000489;28;20491;-71
2022/06/20 10:19:04;;;;;;;0.00;0.00;;;19.10;99.90;;;;;;4994686;28;20547;-69
2022/06/20 10:21:40;;;;;;;0.00;0.00;;;19.30;99.90;;;;;;4999044;28;20449;-70
2022/06/20 10:24:41;;;;;;;0.00;0.00;;;19.60;99.90;;;;;;4993408;28;20460;-70
2022/06/20 10:27:31;;;;;;;0.00;0.00;;;19.60;99.90;;;;;;4997396;28;20497;-70
2022/06/20 10:30:06;;;;;;;0.00;0.00;;;19.50;99.90;;;;;;5000454;28;20529;-71
2022/06/20 10:32:58;;;;;;;0.00;0.00;;;19.60;99.90;;;;;;5000457;28;20444;-70
2022/06/20 10:35:42;;;;;;;0.00;0.00;;;19.60;99.90;;;;;;4992089;28;20537;-71
2022/06/20 10:38:23;;;;;;;0.00;0.00;;;20.00;99.90;;;;;;4999547;28;20483;-70
2022/06/20 10:41:02;;;;;;;0.00;0.00;;;20.10;99.90;;;;;;4988591;28;20474;-70
2022/06/20 10:43:45;;;;;;;0.00;0.00;;;20.20;99.90;;;;;;4994671;28;20530;-73
2022/06/20 10:46:23;;;;;;;0.00;0.00;;;20.40;99.90;;;;;;4991435;28;20494;-69
2022/06/20 10:49:05;;;;;;;0.00;0.00;;;20.40;99.90;;;;;;4994254;28;20497;-70
2022/06/20 10:51:45;;;;;;;0.00;0.00;;;20.30;99.90;;;;;;4994593;28;20537;-71
2022/06/20 10:54:24;;;;;;;0.00;0.00;;;20.30;99.90;;;;;;4995293;28;20453;-71
2022/06/20 10:57:05;;;;;;;0.00;0.00;;;20.40;99.90;;;;;;4996774;28;21027;-71
2022/06/20 10:59:43;;;;;;;0.00;0.00;;;20.60;99.90;;;;;;4999561;28;20528;-70
2022/06/20 11:02:41;;;;;;;0.00;0.00;;;20.70;99.90;;;;;;4994256;28;20554;-71
2022/06/20 11:05:18;;;;;;;0.00;0.00;;;20.90;99.90;;;;;;4992487;28;20434;-71
2022/06/20 11:07:55;;;;;;;0.00;0.00;;;21.00;99.90;;;;;;4990724;28;20577;-71
2022/06/20 11:10:51;;;;;;;0.00;0.00;;;21.00;99.90;;;;;;4999835;28;20452;-71
2022/06/20 11:13:29;;;;;;;0.00;0.00;;;20.90;99.90;;;;;;4985764;28;20446;-71
2022/06/20 11:16:11;;;;;;;0.00;0.00;;;20.60;99.90;;;;;;4999908;28;20750;-70
2022/06/20 11:18:50;;;;;;;0.00;0.00;;;20.30;99.90;;;;;;4993547;28;20443;-71
2022/06/20 11:21:24;;;;;;;0.00;0.00;;;20.10;99.90;;;;;;4982614;28;20787;-69
2022/06/20 11:24:03;;;;;;;0.00;0.00;;;20.00;99.90;;;;;;4985704;28;20528;-69
2022/06/20 11:26:38;;;;;;;0.00;0.00;;;19.80;99.90;;;;;;4985897;28;20561;-71
2022/06/20 11:29:22;;;;;;;0.00;0.00;;;19.70;99.90;;;;;;4982003;28;20442;-73
2022/06/20 11:31:58;;;;;;;0.00;0.00;;;19.60;99.90;;;;;;4987498;28;20460;-77
2022/06/20 11:35:01;;;;;;;0.00;0.00;;;19.60;99.90;;;;;;4989231;28;20599;-75
2022/06/20 11:37:43;;;;;;;0.00;0.00;;;19.70;99.90;;;;;;4982636;28;20478;-76
2022/06/20 11:40:33;;;;;;;0.00;0.00;;;19.70;99.90;;;;;;4981712;28;21038;-75
2022/06/20 11:43:37;;;;;;;0.00;0.00;;;19.80;99.90;;;;;;4977749;28;20443;-76
2022/06/20 11:46:31;;;;;;;0.00;0.00;;;19.90;99.90;;;;;;4978064;28;20553;-77
2022/06/20 11:49:16;;;;;;;0.00;0.00;;;20.10;99.90;;;;;;4977205;28;20829;-76
2022/06/20 11:51:53;;;;;;;0.00;0.00;;;20.40;99.90;;;;;;4977679;28;20455;-77
2022/06/20 11:54:30;;;;;;;0.00;0.00;;;20.70;99.90;;;;;;4978201;28;20446;-77
2022/06/20 11:57:06;;;;;;;0.00;0.00;;;20.70;99.90;;;;;;4980130;28;20482;-76
2022/06/20 11:59:45;;;;;;;0.00;0.00;;;20.50;99.60;;;;;;4980731;28;20485;-77
2022/06/20 12:02:23;;;;;;;0.00;0.00;;;20.30;99.90;;;;;;4980413;28;20471;-77
2022/06/20 12:04:57;;;;;;;0.00;0.00;;;20.20;99.90;;;;;;4979143;28;20458;-76
2022/06/20 12:07:50;;;;;;;0.00;0.00;;;20.20;99.90;;;;;;4979193;28;20459;-75
2022/06/20 12:10:25;;;;;;;0.00;0.00;;;20.30;99.90;;;;;;4979077;28;20439;-76
2022/06/20 12:13:05;;;;;;;0.00;0.00;;;20.40;99.90;;;;;;4978883;28;20940;-74
2022/06/20 12:15:43;;;;;;;0.00;0.00;;;20.60;99.90;;;;;;4978988;28;20446;-76
2022/06/20 12:18:40;;;;;;;0.00;0.00;;;20.70;99.90;;;;;;4978754;28;20656;-77
2022/06/20 12:24:03;;;;;;;0.00;0.00;;;20.50;99.90;;;;;;4978633;28;20953;-77
2022/06/20 12:26:35;;;;;;;0.00;0.00;;;20.70;99.90;;;;;;4978707;28;20450;-76
2022/06/20 12:29:14;;;;;;;0.00;0.00;;;20.80;99.90;;;;;;4978922;28;20470;-77
2022/06/20 12:31:45;;;;;;;0.00;0.00;;;20.90;99.90;;;;;;4980157;28;20481;-78
2022/06/20 12:34:30;;;;;;;0.00;0.00;;;21.00;99.90;;;;;;4979519;28;20708;-76
2022/06/20 12:37:02;;;;;;;0.00;0.00;;;21.00;99.90;;;;;;4978470;28;20459;-76
2022/06/20 12:39:34;;;;;;;0.00;0.00;;;20.80;99.90;;;;;;4978602;28;20435;-76
2022/06/20 12:42:11;;;;;;;0.00;0.00;;;20.90;99.90;;;;;;4978653;28;20444;-77
2022/06/20 12:44:52;;;;;;;0.00;0.00;;;20.70;99.90;;;;;;4978811;28;20453;-77
2022/06/20 12:47:49;;;;;;;0.00;0.00;;;20.40;99.90;;;;;;4978202;28;20565;-78
2022/06/20 12:50:24;;;;;;;0.00;0.00;;;20.40;99.90;;;;;;4978539;28;20431;-78
2022/06/20 12:53:06;;;;;;;0.00;0.00;;;20.40;99.90;;;;;;4979302;28;20806;-77
2022/06/20 12:55:51;;;;;;;0.00;0.00;;;20.40;99.90;;;;;;4962427;28;20439;-76
2022/06/20 12:58:41;;;;;;;0.00;0.00;;;20.40;99.90;;;;;;4979931;28;20489;-77
2022/06/20 13:01:17;;;;;;;0.00;0.00;;;20.40;99.90;;;;;;4979669;28;20442;-75
2022/06/20 13:04:31;;;;;;;0.00;0.00;;;20.40;99.90;;;;;;4979583;28;20444;-76
2022/06/20 13:07:24;;;;;;;0.00;0.00;;;20.60;99.90;;;;;;4881135;29;20572;-79
2022/06/20 13:10:19;;;;;;;0.00;0.00;;;20.50;99.70;;;;;;4979473;28;20435;-77
2022/06/20 13:13:06;;;;;;;0.00;0.00;;;20.50;99.90;;;;;;4978939;28;21024;-78
2022/06/20 13:15:43;;;;;;;0.00;0.00;;;20.60;99.00;;;;;;4978735;28;20722;-77
2022/06/20 13:18:35;;;;;;;0.00;0.00;;;20.80;99.30;;;;;;4978939;28;20478;-77
2022/06/20 13:21:10;;;;;;;0.00;0.00;;;20.90;99.90;;;;;;4978654;28;20447;-76
2022/06/20 13:23:57;;;;;;;0.00;0.00;;;20.90;99.90;;;;;;4986101;28;20467;-78
2022/06/20 13:26:34;;;;;;;0.00;0.00;;;20.90;99.90;;;;;;4989609;28;20564;-78
2022/06/20 13:29:20;;;;;;;0.00;0.00;;;20.90;99.90;;;;;;4983273;28;20485;-78
2022/06/20 13:31:54;;;;;;;0.00;0.00;;;20.70;99.90;;;;;;4986568;28;20443;-76
2022/06/20 13:34:31;;;;;;;0.00;0.00;;;20.40;99.90;;;;;;4987995;28;20450;-76
2022/06/20 13:37:06;;;;;;;0.00;0.00;;;20.20;99.90;;;;;;4985038;28;20479;-71
2022/06/20 13:39:43;;;;;;;0.00;0.00;;;20.30;99.90;;;;;;4991323;28;20481;-72
2022/06/20 13:42:18;;;;;;;0.00;0.00;;;20.40;99.90;;;;;;4995261;28;20433;-71
2022/06/20 13:44:55;;;;;;;0.00;0.00;;;20.40;99.50;;;;;;4990688;28;20460;-71
2022/06/20 13:47:29;;;;;;;0.00;0.00;;;20.20;99.10;;;;;;4985377;28;20476;-71
2022/06/20 13:50:26;;;;;;;0.00;0.00;;;20.20;99.10;;;;;;4990567;28;20457;-70
2022/06/20 13:53:02;;;;;;;0.00;0.00;;;20.20;99.40;;;;;;4987875;28;20457;-71
2022/06/20 13:55:36;;;;;;;0.00;0.00;;;20.20;99.90;;;;;;4999088;28;20813;-72